sensor_id;sensor_type;location;lat;lon;timestamp;P1;durP1;ratioP1;P2;durP2;ratioP2
13943;SDS011;7044;53.286;8.534;2022-12-11T00:01:50;30.50;;;13.87;;
13943;SDS011;7044;53.286;8.534;2022-12-11T00:04:16;25.53;;;12.80;;
13943;SDS011;7044;53.286;8.534;2022-12-11T00:06:43;24.73;;;12.33;;
13943;SDS011;7044;53.286;8.534;2022-12-11T00:09:10;17.73;;;10.87;;
13943;SDS011;7044;53.286;8.534;2022-12-11T00:11:38;18.87;;;10.20;;
13943;SDS011;7044;53.286;8.534;2022-12-11T00:14:04;19.13;;;10.70;;
13943;SDS011;7044;53.286;8.534;2022-12-11T00:16:31;16.30;;;10.17;;
13943;SDS011;7044;53.286;8.534;2022-12-11T00:18:59;21.83;;;10.70;;
13943;SDS011;7044;53.286;8.534;2022-12-11T00:21:26;19.00;;;10.27;;
13943;SDS011;7044;53.286;8.534;2022-12-11T00:23:53;20.70;;;10.60;;
13943;SDS011;7044;53.286;8.534;2022-12-11T00:26:20;22.30;;;10.63;;
13943;SDS011;7044;53.286;8.534;2022-12-11T00:28:50;19.20;;;10.17;;
13943;SDS011;7044;53.286;8.534;2022-12-11T00:31:18;19.90;;;10.83;;
13943;SDS011;7044;53.286;8.534;2022-12-11T00:33:46;21.97;;;12.00;;
13943;SDS011;7044;53.286;8.534;2022-12-11T00:36:16;19.23;;;11.47;;
13943;SDS011;7044;53.286;8.534;2022-12-11T00:38:44;20.53;;;10.30;;
13943;SDS011;7044;53.286;8.534;2022-12-11T00:41:11;16.90;;;9.97;;
13943;SDS011;7044;53.286;8.534;2022-12-11T00:43:38;22.10;;;10.13;;
13943;SDS011;7044;53.286;8.534;2022-12-11T00:46:04;19.03;;;9.30;;
13943;SDS011;7044;53.286;8.534;2022-12-11T00:48:31;15.73;;;8.83;;
13943;SDS011;7044;53.286;8.534;2022-12-11T00:50:58;15.90;;;9.57;;
13943;SDS011;7044;53.286;8.534;2022-12-11T00:53:26;16.93;;;10.63;;
13943;SDS011;7044;53.286;8.534;2022-12-11T00:55:54;16.40;;;9.47;;
13943;SDS011;7044;53.286;8.534;2022-12-11T00:58:20;18.20;;;10.80;;
13943;SDS011;7044;53.286;8.534;2022-12-11T01:00:48;26.57;;;12.17;;
13943;SDS011;7044;53.286;8.534;2022-12-11T01:03:15;32.80;;;13.13;;
13943;SDS011;7044;53.286;8.534;2022-12-11T01:05:49;24.70;;;12.37;;
13943;SDS011;7044;53.286;8.534;2022-12-11T01:08:17;20.90;;;10.83;;
13943;SDS011;7044;53.286;8.534;2022-12-11T01:10:45;17.80;;;9.87;;
13943;SDS011;7044;53.286;8.534;2022-12-11T01:13:11;18.93;;;10.03;;
13943;SDS011;7044;53.286;8.534;2022-12-11T01:15:39;19.13;;;10.43;;
13943;SDS011;7044;53.286;8.534;2022-12-11T01:18:07;20.10;;;10.33;;
13943;SDS011;7044;53.286;8.534;2022-12-11T01:20:34;18.73;;;11.07;;
13943;SDS011;7044;53.286;8.534;2022-12-11T01:23:03;20.03;;;10.73;;
13943;SDS011;7044;53.286;8.534;2022-12-11T01:25:30;16.27;;;10.67;;
13943;SDS011;7044;53.286;8.534;2022-12-11T01:27:59;16.80;;;8.83;;
13943;SDS011;7044;53.286;8.534;2022-12-11T01:30:26;18.40;;;9.90;;
13943;SDS011;7044;53.286;8.534;2022-12-11T01:32:52;17.63;;;10.13;;
13943;SDS011;7044;53.286;8.534;2022-12-11T01:35:19;16.60;;;9.97;;
13943;SDS011;7044;53.286;8.534;2022-12-11T01:37:46;17.97;;;10.33;;
13943;SDS011;7044;53.286;8.534;2022-12-11T01:40:14;18.27;;;10.67;;
13943;SDS011;7044;53.286;8.534;2022-12-11T01:42:42;16.90;;;10.03;;
13943;SDS011;7044;53.286;8.534;2022-12-11T01:48:09;18.27;;;10.30;;
13943;SDS011;7044;53.286;8.534;2022-12-11T01:50:38;18.13;;;10.30;;
13943;SDS011;7044;53.286;8.534;2022-12-11T01:53:11;16.77;;;10.67;;
13943;SDS011;7044;53.286;8.534;2022-12-11T01:55:42;16.67;;;10.23;;
13943;SDS011;7044;53.286;8.534;2022-12-11T01:58:11;17.93;;;9.77;;
13943;SDS011;7044;53.286;8.534;2022-12-11T02:00:41;14.53;;;9.13;;
13943;SDS011;7044;53.286;8.534;2022-12-11T02:03:08;15.53;;;9.40;;
13943;SDS011;7044;53.286;8.534;2022-12-11T02:05:34;16.73;;;9.83;;
13943;SDS011;7044;53.286;8.534;2022-12-11T02:08:02;16.43;;;9.70;;
13943;SDS011;7044;53.286;8.534;2022-12-11T02:10:31;19.87;;;10.70;;
13943;SDS011;7044;53.286;8.534;2022-12-11T02:13:10;16.63;;;10.10;;
13943;SDS011;7044;53.286;8.534;2022-12-11T02:15:43;18.83;;;10.33;;
13943;SDS011;7044;53.286;8.534;2022-12-11T02:18:16;20.23;;;10.20;;
13943;SDS011;7044;53.286;8.534;2022-12-11T02:20:52;15.70;;;9.70;;
13943;SDS011;7044;53.286;8.534;2022-12-11T02:23:26;19.43;;;9.37;;
13943;SDS011;7044;53.286;8.534;2022-12-11T02:26:11;18.40;;;10.23;;
13943;SDS011;7044;53.286;8.534;2022-12-11T02:28:52;16.77;;;9.37;;
13943;SDS011;7044;53.286;8.534;2022-12-11T02:31:22;16.13;;;9.77;;
13943;SDS011;7044;53.286;8.534;2022-12-11T02:33:54;16.73;;;9.77;;
13943;SDS011;7044;53.286;8.534;2022-12-11T02:36:27;16.40;;;9.13;;
13943;SDS011;7044;53.286;8.534;2022-12-11T02:38:58;18.07;;;9.83;;
13943;SDS011;7044;53.286;8.534;2022-12-11T02:41:28;16.87;;;9.70;;
13943;SDS011;7044;53.286;8.534;2022-12-11T02:43:56;17.30;;;9.23;;
13943;SDS011;7044;53.286;8.534;2022-12-11T02:46:25;17.40;;;9.43;;
13943;SDS011;7044;53.286;8.534;2022-12-11T02:48:53;16.70;;;9.60;;
13943;SDS011;7044;53.286;8.534;2022-12-11T02:51:22;18.53;;;10.47;;
13943;SDS011;7044;53.286;8.534;2022-12-11T02:53:52;17.97;;;9.73;;
13943;SDS011;7044;53.286;8.534;2022-12-11T02:56:23;16.70;;;9.50;;
13943;SDS011;7044;53.286;8.534;2022-12-11T02:58:55;19.57;;;10.50;;
13943;SDS011;7044;53.286;8.534;2022-12-11T03:01:26;19.00;;;9.50;;
13943;SDS011;7044;53.286;8.534;2022-12-11T03:03:53;16.70;;;9.37;;
13943;SDS011;7044;53.286;8.534;2022-12-11T03:06:21;17.23;;;9.63;;
13943;SDS011;7044;53.286;8.534;2022-12-11T03:08:51;16.40;;;9.37;;
13943;SDS011;7044;53.286;8.534;2022-12-11T03:11:18;20.10;;;10.47;;
13943;SDS011;7044;53.286;8.534;2022-12-11T03:13:45;22.73;;;10.53;;
13943;SDS011;7044;53.286;8.534;2022-12-11T03:16:14;19.37;;;9.77;;
13943;SDS011;7044;53.286;8.534;2022-12-11T03:18:54;22.10;;;10.50;;
13943;SDS011;7044;53.286;8.534;2022-12-11T03:21:27;16.27;;;9.73;;
13943;SDS011;7044;53.286;8.534;2022-12-11T03:24:01;18.90;;;10.17;;
13943;SDS011;7044;53.286;8.534;2022-12-11T03:26:31;15.40;;;9.43;;
13943;SDS011;7044;53.286;8.534;2022-12-11T03:29:03;17.70;;;10.00;;
13943;SDS011;7044;53.286;8.534;2022-12-11T03:31:37;17.67;;;9.97;;
13943;SDS011;7044;53.286;8.534;2022-12-11T03:34:08;19.07;;;9.37;;
13943;SDS011;7044;53.286;8.534;2022-12-11T03:36:38;18.17;;;9.70;;
13943;SDS011;7044;53.286;8.534;2022-12-11T03:39:08;15.33;;;8.87;;
13943;SDS011;7044;53.286;8.534;2022-12-11T03:41:38;16.97;;;9.37;;
13943;SDS011;7044;53.286;8.534;2022-12-11T03:44:07;17.57;;;9.97;;
13943;SDS011;7044;53.286;8.534;2022-12-11T03:46:36;13.37;;;8.83;;
13943;SDS011;7044;53.286;8.534;2022-12-11T03:49:06;16.10;;;9.87;;
13943;SDS011;7044;53.286;8.534;2022-12-11T03:51:39;17.40;;;9.20;;
13943;SDS011;7044;53.286;8.534;2022-12-11T03:54:08;17.00;;;10.30;;
13943;SDS011;7044;53.286;8.534;2022-12-11T03:56:36;15.73;;;9.70;;
13943;SDS011;7044;53.286;8.534;2022-12-11T03:59:04;17.63;;;10.17;;
13943;SDS011;7044;53.286;8.534;2022-12-11T04:01:31;19.37;;;10.57;;
13943;SDS011;7044;53.286;8.534;2022-12-11T04:03:59;16.60;;;9.43;;
13943;SDS011;7044;53.286;8.534;2022-12-11T04:06:26;22.07;;;10.00;;
13943;SDS011;7044;53.286;8.534;2022-12-11T04:08:53;20.10;;;11.10;;
13943;SDS011;7044;53.286;8.534;2022-12-11T04:11:20;16.27;;;9.77;;
13943;SDS011;7044;53.286;8.534;2022-12-11T04:14:02;18.03;;;10.07;;
13943;SDS011;7044;53.286;8.534;2022-12-11T04:16:48;19.40;;;10.83;;
13943;SDS011;7044;53.286;8.534;2022-12-11T04:19:16;18.03;;;9.57;;
13943;SDS011;7044;53.286;8.534;2022-12-11T04:22:02;20.30;;;9.93;;
13943;SDS011;7044;53.286;8.534;2022-12-11T04:24:47;15.27;;;9.30;;
13943;SDS011;7044;53.286;8.534;2022-12-11T04:27:15;16.33;;;10.17;;
13943;SDS011;7044;53.286;8.534;2022-12-11T04:30:02;18.33;;;10.23;;
13943;SDS011;7044;53.286;8.534;2022-12-11T04:32:30;17.53;;;10.00;;
13943;SDS011;7044;53.286;8.534;2022-12-11T04:34:59;16.10;;;9.93;;
13943;SDS011;7044;53.286;8.534;2022-12-11T04:37:26;20.07;;;10.70;;
13943;SDS011;7044;53.286;8.534;2022-12-11T04:39:53;21.87;;;10.63;;
13943;SDS011;7044;53.286;8.534;2022-12-11T04:42:19;19.20;;;9.77;;
13943;SDS011;7044;53.286;8.534;2022-12-11T04:44:46;18.43;;;10.13;;
13943;SDS011;7044;53.286;8.534;2022-12-11T04:47:13;16.90;;;10.27;;
13943;SDS011;7044;53.286;8.534;2022-12-11T04:49:40;19.17;;;10.17;;
13943;SDS011;7044;53.286;8.534;2022-12-11T04:52:08;16.87;;;10.10;;
13943;SDS011;7044;53.286;8.534;2022-12-11T04:54:35;20.27;;;9.83;;
13943;SDS011;7044;53.286;8.534;2022-12-11T04:57:02;17.37;;;9.90;;
13943;SDS011;7044;53.286;8.534;2022-12-11T04:59:28;18.97;;;9.97;;
13943;SDS011;7044;53.286;8.534;2022-12-11T05:01:57;18.07;;;9.73;;
13943;SDS011;7044;53.286;8.534;2022-12-11T05:04:23;17.10;;;9.63;;
13943;SDS011;7044;53.286;8.534;2022-12-11T05:06:50;17.70;;;9.50;;
13943;SDS011;7044;53.286;8.534;2022-12-11T05:09:18;17.03;;;9.93;;
13943;SDS011;7044;53.286;8.534;2022-12-11T05:11:45;19.77;;;9.63;;
13943;SDS011;7044;53.286;8.534;2022-12-11T05:14:12;14.83;;;9.57;;
13943;SDS011;7044;53.286;8.534;2022-12-11T05:16:39;17.73;;;9.50;;
13943;SDS011;7044;53.286;8.534;2022-12-11T05:19:06;19.03;;;9.80;;
13943;SDS011;7044;53.286;8.534;2022-12-11T05:21:33;18.70;;;9.87;;
13943;SDS011;7044;53.286;8.534;2022-12-11T05:23:59;16.40;;;10.20;;
13943;SDS011;7044;53.286;8.534;2022-12-11T05:26:27;15.40;;;9.10;;
13943;SDS011;7044;53.286;8.534;2022-12-11T05:28:54;17.67;;;10.03;;
13943;SDS011;7044;53.286;8.534;2022-12-11T05:31:22;19.13;;;10.37;;
13943;SDS011;7044;53.286;8.534;2022-12-11T05:33:50;18.17;;;9.70;;
13943;SDS011;7044;53.286;8.534;2022-12-11T05:36:19;17.23;;;9.43;;
13943;SDS011;7044;53.286;8.534;2022-12-11T05:38:47;18.10;;;9.67;;
13943;SDS011;7044;53.286;8.534;2022-12-11T05:41:15;18.73;;;9.60;;
13943;SDS011;7044;53.286;8.534;2022-12-11T05:43:45;19.20;;;10.17;;
13943;SDS011;7044;53.286;8.534;2022-12-11T05:46:13;16.87;;;10.10;;
13943;SDS011;7044;53.286;8.534;2022-12-11T05:48:42;18.23;;;9.13;;
13943;SDS011;7044;53.286;8.534;2022-12-11T05:51:10;20.17;;;10.57;;
13943;SDS011;7044;53.286;8.534;2022-12-11T05:53:38;18.23;;;10.60;;
13943;SDS011;7044;53.286;8.534;2022-12-11T05:56:06;21.17;;;10.10;;
13943;SDS011;7044;53.286;8.534;2022-12-11T05:58:35;19.50;;;9.83;;
13943;SDS011;7044;53.286;8.534;2022-12-11T06:01:07;17.73;;;10.10;;
13943;SDS011;7044;53.286;8.534;2022-12-11T06:03:34;17.80;;;9.70;;
13943;SDS011;7044;53.286;8.534;2022-12-11T06:06:01;20.10;;;10.77;;
13943;SDS011;7044;53.286;8.534;2022-12-11T06:08:29;18.27;;;9.93;;
13943;SDS011;7044;53.286;8.534;2022-12-11T06:10:56;18.07;;;10.13;;
13943;SDS011;7044;53.286;8.534;2022-12-11T06:13:23;18.03;;;10.27;;
13943;SDS011;7044;53.286;8.534;2022-12-11T06:15:50;19.87;;;10.77;;
13943;SDS011;7044;53.286;8.534;2022-12-11T06:18:18;18.50;;;10.67;;
13943;SDS011;7044;53.286;8.534;2022-12-11T06:20:45;15.27;;;8.87;;
13943;SDS011;7044;53.286;8.534;2022-12-11T06:23:12;20.67;;;8.83;;
13943;SDS011;7044;53.286;8.534;2022-12-11T06:25:38;19.20;;;10.10;;
13943;SDS011;7044;53.286;8.534;2022-12-11T06:28:05;19.93;;;10.53;;
13943;SDS011;7044;53.286;8.534;2022-12-11T06:30:32;20.23;;;9.60;;
13943;SDS011;7044;53.286;8.534;2022-12-11T06:32:59;15.27;;;9.07;;
13943;SDS011;7044;53.286;8.534;2022-12-11T06:35:27;20.63;;;10.37;;
13943;SDS011;7044;53.286;8.534;2022-12-11T06:37:54;18.73;;;9.77;;
13943;SDS011;7044;53.286;8.534;2022-12-11T06:40:21;19.57;;;10.70;;
13943;SDS011;7044;53.286;8.534;2022-12-11T06:42:47;19.03;;;9.97;;
13943;SDS011;7044;53.286;8.534;2022-12-11T06:45:14;18.67;;;8.93;;
13943;SDS011;7044;53.286;8.534;2022-12-11T06:47:41;18.50;;;10.50;;
13943;SDS011;7044;53.286;8.534;2022-12-11T06:50:08;17.90;;;9.43;;
13943;SDS011;7044;53.286;8.534;2022-12-11T06:52:37;18.00;;;10.83;;
13943;SDS011;7044;53.286;8.534;2022-12-11T06:55:04;20.53;;;10.40;;
13943;SDS011;7044;53.286;8.534;2022-12-11T06:57:31;21.73;;;11.30;;
13943;SDS011;7044;53.286;8.534;2022-12-11T06:59:58;18.10;;;9.93;;
13943;SDS011;7044;53.286;8.534;2022-12-11T07:02:25;16.00;;;9.77;;
13943;SDS011;7044;53.286;8.534;2022-12-11T07:04:52;22.27;;;10.70;;
13943;SDS011;7044;53.286;8.534;2022-12-11T07:07:18;19.63;;;9.67;;
13943;SDS011;7044;53.286;8.534;2022-12-11T07:09:47;17.27;;;9.03;;
13943;SDS011;7044;53.286;8.534;2022-12-11T07:12:13;21.33;;;10.77;;
13943;SDS011;7044;53.286;8.534;2022-12-11T07:14:42;18.93;;;10.97;;
13943;SDS011;7044;53.286;8.534;2022-12-11T07:17:08;16.27;;;9.60;;
13943;SDS011;7044;53.286;8.534;2022-12-11T07:19:35;19.30;;;10.13;;
13943;SDS011;7044;53.286;8.534;2022-12-11T07:22:03;21.77;;;10.80;;
13943;SDS011;7044;53.286;8.534;2022-12-11T07:24:30;21.80;;;10.43;;
13943;SDS011;7044;53.286;8.534;2022-12-11T07:26:58;18.20;;;9.70;;
13943;SDS011;7044;53.286;8.534;2022-12-11T07:29:25;20.93;;;10.80;;
13943;SDS011;7044;53.286;8.534;2022-12-11T07:31:52;18.13;;;9.77;;
13943;SDS011;7044;53.286;8.534;2022-12-11T07:34:18;19.73;;;9.60;;
13943;SDS011;7044;53.286;8.534;2022-12-11T07:36:45;25.93;;;11.53;;
13943;SDS011;7044;53.286;8.534;2022-12-11T07:39:12;17.77;;;9.73;;
13943;SDS011;7044;53.286;8.534;2022-12-11T07:41:39;19.10;;;11.00;;
13943;SDS011;7044;53.286;8.534;2022-12-11T07:44:08;17.87;;;10.17;;
13943;SDS011;7044;53.286;8.534;2022-12-11T07:46:35;18.87;;;10.93;;
13943;SDS011;7044;53.286;8.534;2022-12-11T07:49:03;20.00;;;10.93;;
13943;SDS011;7044;53.286;8.534;2022-12-11T07:51:31;19.87;;;10.07;;
13943;SDS011;7044;53.286;8.534;2022-12-11T07:54:00;18.17;;;10.33;;
13943;SDS011;7044;53.286;8.534;2022-12-11T07:56:29;20.63;;;10.03;;
13943;SDS011;7044;53.286;8.534;2022-12-11T07:58:58;19.93;;;10.17;;
13943;SDS011;7044;53.286;8.534;2022-12-11T08:01:27;18.73;;;10.63;;
13943;SDS011;7044;53.286;8.534;2022-12-11T08:03:55;17.93;;;10.37;;
13943;SDS011;7044;53.286;8.534;2022-12-11T08:06:24;20.00;;;10.63;;
13943;SDS011;7044;53.286;8.534;2022-12-11T08:08:52;20.83;;;9.67;;
13943;SDS011;7044;53.286;8.534;2022-12-11T08:11:19;21.53;;;10.57;;
13943;SDS011;7044;53.286;8.534;2022-12-11T08:13:46;18.70;;;10.43;;
13943;SDS011;7044;53.286;8.534;2022-12-11T08:16:14;19.03;;;9.57;;
13943;SDS011;7044;53.286;8.534;2022-12-11T08:18:43;20.37;;;12.00;;
13943;SDS011;7044;53.286;8.534;2022-12-11T08:21:12;19.30;;;10.47;;
13943;SDS011;7044;53.286;8.534;2022-12-11T08:23:40;17.30;;;10.03;;
13943;SDS011;7044;53.286;8.534;2022-12-11T08:26:08;20.37;;;12.07;;
13943;SDS011;7044;53.286;8.534;2022-12-11T08:28:36;20.80;;;11.83;;
13943;SDS011;7044;53.286;8.534;2022-12-11T08:31:03;20.83;;;10.43;;
13943;SDS011;7044;53.286;8.534;2022-12-11T08:33:32;18.53;;;10.23;;
13943;SDS011;7044;53.286;8.534;2022-12-11T08:36:02;22.43;;;11.30;;
13943;SDS011;7044;53.286;8.534;2022-12-11T08:38:29;25.17;;;10.13;;
13943;SDS011;7044;53.286;8.534;2022-12-11T08:40:56;20.93;;;10.83;;
13943;SDS011;7044;53.286;8.534;2022-12-11T08:43:23;18.70;;;10.23;;
13943;SDS011;7044;53.286;8.534;2022-12-11T08:45:50;25.23;;;11.97;;
13943;SDS011;7044;53.286;8.534;2022-12-11T08:48:16;20.87;;;11.37;;
13943;SDS011;7044;53.286;8.534;2022-12-11T08:50:43;22.60;;;10.70;;
13943;SDS011;7044;53.286;8.534;2022-12-11T08:53:11;24.63;;;11.63;;
13943;SDS011;7044;53.286;8.534;2022-12-11T08:55:38;21.90;;;11.30;;
13943;SDS011;7044;53.286;8.534;2022-12-11T08:58:05;21.87;;;11.37;;
13943;SDS011;7044;53.286;8.534;2022-12-11T09:00:32;23.30;;;11.73;;
13943;SDS011;7044;53.286;8.534;2022-12-11T09:02:59;24.30;;;11.93;;
13943;SDS011;7044;53.286;8.534;2022-12-11T09:05:26;28.60;;;12.60;;
13943;SDS011;7044;53.286;8.534;2022-12-11T09:07:53;24.60;;;11.53;;
13943;SDS011;7044;53.286;8.534;2022-12-11T09:10:21;26.93;;;11.63;;
13943;SDS011;7044;53.286;8.534;2022-12-11T09:12:48;24.30;;;13.07;;
13943;SDS011;7044;53.286;8.534;2022-12-11T09:15:14;22.03;;;14.30;;
13943;SDS011;7044;53.286;8.534;2022-12-11T09:17:41;32.60;;;16.80;;
13943;SDS011;7044;53.286;8.534;2022-12-11T09:20:09;28.43;;;14.93;;
13943;SDS011;7044;53.286;8.534;2022-12-11T09:22:36;32.07;;;15.40;;
13943;SDS011;7044;53.286;8.534;2022-12-11T09:25:04;27.03;;;13.03;;
13943;SDS011;7044;53.286;8.534;2022-12-11T09:27:33;24.43;;;12.83;;
13943;SDS011;7044;53.286;8.534;2022-12-11T09:30:00;23.73;;;13.43;;
13943;SDS011;7044;53.286;8.534;2022-12-11T09:32:27;28.00;;;13.47;;
13943;SDS011;7044;53.286;8.534;2022-12-11T09:34:54;20.93;;;12.03;;
13943;SDS011;7044;53.286;8.534;2022-12-11T09:37:21;22.90;;;12.87;;
13943;SDS011;7044;53.286;8.534;2022-12-11T09:39:48;32.40;;;13.17;;
13943;SDS011;7044;53.286;8.534;2022-12-11T09:42:17;25.47;;;12.23;;
13943;SDS011;7044;53.286;8.534;2022-12-11T09:44:51;43.77;;;19.67;;
13943;SDS011;7044;53.286;8.534;2022-12-11T09:47:22;37.00;;;18.13;;
13943;SDS011;7044;53.286;8.534;2022-12-11T09:49:52;33.23;;;15.93;;
13943;SDS011;7044;53.286;8.534;2022-12-11T09:52:30;24.07;;;12.57;;
13943;SDS011;7044;53.286;8.534;2022-12-11T09:54:59;32.10;;;15.87;;
13943;SDS011;7044;53.286;8.534;2022-12-11T09:57:34;25.63;;;13.63;;
13943;SDS011;7044;53.286;8.534;2022-12-11T10:00:15;25.37;;;13.83;;
13943;SDS011;7044;53.286;8.534;2022-12-11T10:05:50;25.27;;;10.70;;
13943;SDS011;7044;53.286;8.534;2022-12-11T10:08:28;25.40;;;11.27;;
13943;SDS011;7044;53.286;8.534;2022-12-11T10:11:04;18.73;;;10.60;;
13943;SDS011;7044;53.286;8.534;2022-12-11T10:13:48;20.63;;;11.57;;
13943;SDS011;7044;53.286;8.534;2022-12-11T10:16:28;14.00;;;7.33;;
13943;SDS011;7044;53.286;8.534;2022-12-11T10:19:00;23.97;;;11.57;;
13943;SDS011;7044;53.286;8.534;2022-12-11T10:21:28;22.97;;;12.30;;
13943;SDS011;7044;53.286;8.534;2022-12-11T10:24:04;22.70;;;12.37;;
13943;SDS011;7044;53.286;8.534;2022-12-11T10:26:40;23.03;;;12.27;;
13943;SDS011;7044;53.286;8.534;2022-12-11T10:29:08;18.33;;;10.40;;
13943;SDS011;7044;53.286;8.534;2022-12-11T10:31:42;19.57;;;10.73;;
13943;SDS011;7044;53.286;8.534;2022-12-11T10:34:16;18.13;;;10.40;;
13943;SDS011;7044;53.286;8.534;2022-12-11T10:36:51;18.23;;;10.10;;
13943;SDS011;7044;53.286;8.534;2022-12-11T10:39:20;24.73;;;10.97;;
13943;SDS011;7044;53.286;8.534;2022-12-11T10:41:48;19.87;;;11.13;;
13943;SDS011;7044;53.286;8.534;2022-12-11T10:44:17;20.50;;;11.50;;
13943;SDS011;7044;53.286;8.534;2022-12-11T10:46:47;19.43;;;11.40;;
13943;SDS011;7044;53.286;8.534;2022-12-11T10:49:27;20.90;;;11.53;;
13943;SDS011;7044;53.286;8.534;2022-12-11T10:51:55;25.10;;;12.73;;
13943;SDS011;7044;53.286;8.534;2022-12-11T10:54:28;30.03;;;12.43;;
13943;SDS011;7044;53.286;8.534;2022-12-11T10:56:57;29.80;;;13.33;;
13943;SDS011;7044;53.286;8.534;2022-12-11T10:59:27;25.27;;;12.73;;
13943;SDS011;7044;53.286;8.534;2022-12-11T11:02:00;26.73;;;12.97;;
13943;SDS011;7044;53.286;8.534;2022-12-11T11:04:28;19.50;;;10.77;;
13943;SDS011;7044;53.286;8.534;2022-12-11T11:07:00;25.13;;;11.40;;
13943;SDS011;7044;53.286;8.534;2022-12-11T11:09:29;23.10;;;12.30;;
13943;SDS011;7044;53.286;8.534;2022-12-11T11:11:58;27.60;;;13.40;;
13943;SDS011;7044;53.286;8.534;2022-12-11T11:14:25;26.17;;;13.13;;
13943;SDS011;7044;53.286;8.534;2022-12-11T11:16:54;23.73;;;12.70;;
13943;SDS011;7044;53.286;8.534;2022-12-11T11:19:25;27.77;;;13.47;;
13943;SDS011;7044;53.286;8.534;2022-12-11T11:21:56;23.73;;;12.90;;
13943;SDS011;7044;53.286;8.534;2022-12-11T11:24:26;32.67;;;13.67;;
13943;SDS011;7044;53.286;8.534;2022-12-11T11:26:55;26.87;;;14.17;;
13943;SDS011;7044;53.286;8.534;2022-12-11T11:29:25;26.90;;;13.00;;
13943;SDS011;7044;53.286;8.534;2022-12-11T11:31:55;25.00;;;12.67;;
13943;SDS011;7044;53.286;8.534;2022-12-11T11:34:24;31.13;;;12.57;;
13943;SDS011;7044;53.286;8.534;2022-12-11T11:36:54;26.17;;;13.67;;
13943;SDS011;7044;53.286;8.534;2022-12-11T11:39:24;24.47;;;11.37;;
13943;SDS011;7044;53.286;8.534;2022-12-11T11:41:56;29.10;;;13.30;;
13943;SDS011;7044;53.286;8.534;2022-12-11T11:44:30;26.97;;;13.63;;
13943;SDS011;7044;53.286;8.534;2022-12-11T11:47:02;23.83;;;11.80;;
13943;SDS011;7044;53.286;8.534;2022-12-11T11:49:46;22.07;;;13.00;;
13943;SDS011;7044;53.286;8.534;2022-12-11T11:52:19;33.87;;;14.13;;
13943;SDS011;7044;53.286;8.534;2022-12-11T11:54:55;31.30;;;13.43;;
13943;SDS011;7044;53.286;8.534;2022-12-11T11:57:31;26.87;;;13.10;;
13943;SDS011;7044;53.286;8.534;2022-12-11T12:00:04;28.63;;;12.80;;
13943;SDS011;7044;53.286;8.534;2022-12-11T12:02:35;25.87;;;13.17;;
13943;SDS011;7044;53.286;8.534;2022-12-11T12:05:04;25.40;;;13.07;;
13943;SDS011;7044;53.286;8.534;2022-12-11T12:07:33;25.40;;;12.63;;
13943;SDS011;7044;53.286;8.534;2022-12-11T12:10:12;23.57;;;12.63;;
13943;SDS011;7044;53.286;8.534;2022-12-11T12:12:46;22.90;;;12.37;;
13943;SDS011;7044;53.286;8.534;2022-12-11T12:15:20;23.90;;;11.00;;
13943;SDS011;7044;53.286;8.534;2022-12-11T12:17:57;28.70;;;12.53;;
13943;SDS011;7044;53.286;8.534;2022-12-11T12:20:36;30.90;;;13.60;;
13943;SDS011;7044;53.286;8.534;2022-12-11T12:23:21;24.60;;;12.47;;
13943;SDS011;7044;53.286;8.534;2022-12-11T12:25:58;31.80;;;14.77;;
13943;SDS011;7044;53.286;8.534;2022-12-11T12:28:31;23.90;;;12.40;;
13943;SDS011;7044;53.286;8.534;2022-12-11T12:31:10;22.60;;;12.27;;
13943;SDS011;7044;53.286;8.534;2022-12-11T12:33:46;25.53;;;12.00;;
13943;SDS011;7044;53.286;8.534;2022-12-11T12:36:24;22.43;;;11.17;;
13943;SDS011;7044;53.286;8.534;2022-12-11T12:38:59;23.97;;;11.57;;
13943;SDS011;7044;53.286;8.534;2022-12-11T12:41:31;21.97;;;11.47;;
13943;SDS011;7044;53.286;8.534;2022-12-11T12:44:07;25.70;;;10.73;;
13943;SDS011;7044;53.286;8.534;2022-12-11T12:46:48;23.33;;;10.83;;
13943;SDS011;7044;53.286;8.534;2022-12-11T12:49:24;21.63;;;11.10;;
13943;SDS011;7044;53.286;8.534;2022-12-11T12:52:12;25.80;;;11.50;;
13943;SDS011;7044;53.286;8.534;2022-12-11T12:54:41;19.83;;;11.13;;
13943;SDS011;7044;53.286;8.534;2022-12-11T12:57:31;25.97;;;11.37;;
13943;SDS011;7044;53.286;8.534;2022-12-11T13:00:00;23.73;;;11.27;;
13943;SDS011;7044;53.286;8.534;2022-12-11T13:02:27;22.50;;;10.90;;
13943;SDS011;7044;53.286;8.534;2022-12-11T13:04:55;28.93;;;12.43;;
13943;SDS011;7044;53.286;8.534;2022-12-11T13:07:27;23.30;;;11.80;;
13943;SDS011;7044;53.286;8.534;2022-12-11T13:09:57;27.20;;;11.27;;
13943;SDS011;7044;53.286;8.534;2022-12-11T13:12:30;20.10;;;10.63;;
13943;SDS011;7044;53.286;8.534;2022-12-11T13:14:59;22.13;;;11.57;;
13943;SDS011;7044;53.286;8.534;2022-12-11T13:17:33;25.17;;;11.57;;
13943;SDS011;7044;53.286;8.534;2022-12-11T13:20:08;26.47;;;12.37;;
13943;SDS011;7044;53.286;8.534;2022-12-11T13:22:51;27.63;;;11.57;;
13943;SDS011;7044;53.286;8.534;2022-12-11T13:25:22;24.53;;;11.83;;
13943;SDS011;7044;53.286;8.534;2022-12-11T13:27:51;23.23;;;12.43;;
13943;SDS011;7044;53.286;8.534;2022-12-11T13:30:29;30.47;;;12.40;;
13943;SDS011;7044;53.286;8.534;2022-12-11T13:33:00;25.27;;;12.23;;
13943;SDS011;7044;53.286;8.534;2022-12-11T13:35:29;30.00;;;12.07;;
13943;SDS011;7044;53.286;8.534;2022-12-11T13:38:02;19.33;;;8.83;;
13943;SDS011;7044;53.286;8.534;2022-12-11T13:40:36;21.63;;;9.90;;
13943;SDS011;7044;53.286;8.534;2022-12-11T13:43:07;26.70;;;10.00;;
13943;SDS011;7044;53.286;8.534;2022-12-11T13:45:43;20.50;;;9.77;;
13943;SDS011;7044;53.286;8.534;2022-12-11T13:48:15;18.43;;;9.10;;
13943;SDS011;7044;53.286;8.534;2022-12-11T13:50:46;20.40;;;9.23;;
13943;SDS011;7044;53.286;8.534;2022-12-11T13:53:16;20.13;;;9.33;;
13943;SDS011;7044;53.286;8.534;2022-12-11T13:55:44;19.30;;;8.40;;
13943;SDS011;7044;53.286;8.534;2022-12-11T13:58:15;19.10;;;8.60;;
13943;SDS011;7044;53.286;8.534;2022-12-11T14:00:50;18.30;;;8.13;;
13943;SDS011;7044;53.286;8.534;2022-12-11T14:03:31;20.30;;;8.73;;
13943;SDS011;7044;53.286;8.534;2022-12-11T14:05:59;21.60;;;8.43;;
13943;SDS011;7044;53.286;8.534;2022-12-11T14:08:30;21.23;;;8.07;;
13943;SDS011;7044;53.286;8.534;2022-12-11T14:10:59;15.17;;;8.30;;
13943;SDS011;7044;53.286;8.534;2022-12-11T14:13:28;17.53;;;8.57;;
13943;SDS011;7044;53.286;8.534;2022-12-11T14:15:58;22.97;;;9.13;;
13943;SDS011;7044;53.286;8.534;2022-12-11T14:18:26;18.90;;;8.47;;
13943;SDS011;7044;53.286;8.534;2022-12-11T14:20:55;19.63;;;8.93;;
13943;SDS011;7044;53.286;8.534;2022-12-11T14:23:24;17.37;;;8.17;;
13943;SDS011;7044;53.286;8.534;2022-12-11T14:25:55;17.30;;;8.40;;
13943;SDS011;7044;53.286;8.534;2022-12-11T14:28:24;19.20;;;8.37;;
13943;SDS011;7044;53.286;8.534;2022-12-11T14:30:53;17.57;;;9.07;;
13943;SDS011;7044;53.286;8.534;2022-12-11T14:33:23;19.20;;;9.40;;
13943;SDS011;7044;53.286;8.534;2022-12-11T14:35:53;17.13;;;8.67;;
13943;SDS011;7044;53.286;8.534;2022-12-11T14:38:22;19.60;;;9.33;;
13943;SDS011;7044;53.286;8.534;2022-12-11T14:40:52;20.20;;;8.27;;
13943;SDS011;7044;53.286;8.534;2022-12-11T14:43:25;17.33;;;8.17;;
13943;SDS011;7044;53.286;8.534;2022-12-11T14:45:56;16.57;;;9.33;;
13943;SDS011;7044;53.286;8.534;2022-12-11T14:48:26;16.17;;;8.03;;
13943;SDS011;7044;53.286;8.534;2022-12-11T14:50:57;17.03;;;8.70;;
13943;SDS011;7044;53.286;8.534;2022-12-11T14:53:28;18.63;;;8.67;;
13943;SDS011;7044;53.286;8.534;2022-12-11T14:56:02;15.73;;;8.73;;
13943;SDS011;7044;53.286;8.534;2022-12-11T14:58:32;19.37;;;9.37;;
13943;SDS011;7044;53.286;8.534;2022-12-11T15:01:06;16.93;;;8.37;;